sensor_id;sensor_type;location;lat;lon;timestamp;P1;durP1;ratioP1;P2;durP2;ratioP2
11524;SDS011;5819;49.648;8.330;2022-11-20T00:00:52;35.57;;;24.53;;
11524;SDS011;5819;49.648;8.330;2022-11-20T00:03:20;31.80;;;22.97;;
11524;SDS011;5819;49.648;8.330;2022-11-20T00:05:48;34.53;;;24.03;;
11524;SDS011;5819;49.648;8.330;2022-11-20T00:08:16;33.97;;;24.60;;
11524;SDS011;5819;49.648;8.330;2022-11-20T00:10:44;33.13;;;23.20;;
11524;SDS011;5819;49.648;8.330;2022-11-20T00:13:12;32.87;;;22.53;;
11524;SDS011;5819;49.648;8.330;2022-11-20T00:15:39;31.90;;;22.77;;
11524;SDS011;5819;49.648;8.330;2022-11-20T00:18:08;34.03;;;24.20;;
11524;SDS011;5819;49.648;8.330;2022-11-20T00:20:36;32.67;;;23.50;;
11524;SDS011;5819;49.648;8.330;2022-11-20T00:23:04;32.60;;;23.30;;
11524;SDS011;5819;49.648;8.330;2022-11-20T00:25:33;32.37;;;23.50;;
11524;SDS011;5819;49.648;8.330;2022-11-20T00:28:01;31.57;;;22.70;;
11524;SDS011;5819;49.648;8.330;2022-11-20T00:30:29;35.70;;;23.03;;
11524;SDS011;5819;49.648;8.330;2022-11-20T00:32:57;32.07;;;22.70;;
11524;SDS011;5819;49.648;8.330;2022-11-20T00:35:26;31.13;;;22.67;;
11524;SDS011;5819;49.648;8.330;2022-11-20T00:37:54;32.00;;;22.37;;
11524;SDS011;5819;49.648;8.330;2022-11-20T00:40:21;34.00;;;23.77;;
11524;SDS011;5819;49.648;8.330;2022-11-20T00:42:50;33.00;;;22.97;;
11524;SDS011;5819;49.648;8.330;2022-11-20T00:45:17;35.37;;;23.90;;
11524;SDS011;5819;49.648;8.330;2022-11-20T00:47:45;32.83;;;22.80;;
11524;SDS011;5819;49.648;8.330;2022-11-20T00:50:13;34.17;;;23.53;;
11524;SDS011;5819;49.648;8.330;2022-11-20T00:52:42;34.93;;;23.60;;
11524;SDS011;5819;49.648;8.330;2022-11-20T00:55:10;32.40;;;22.37;;
11524;SDS011;5819;49.648;8.330;2022-11-20T00:57:37;30.93;;;22.80;;
11524;SDS011;5819;49.648;8.330;2022-11-20T01:00:06;32.73;;;22.77;;
11524;SDS011;5819;49.648;8.330;2022-11-20T01:02:34;34.53;;;22.27;;
11524;SDS011;5819;49.648;8.330;2022-11-20T01:05:02;31.40;;;22.30;;
11524;SDS011;5819;49.648;8.330;2022-11-20T01:07:29;32.00;;;22.93;;
11524;SDS011;5819;49.648;8.330;2022-11-20T01:09:59;28.87;;;21.33;;
11524;SDS011;5819;49.648;8.330;2022-11-20T01:12:26;32.67;;;22.53;;
11524;SDS011;5819;49.648;8.330;2022-11-20T01:14:54;29.27;;;20.67;;
11524;SDS011;5819;49.648;8.330;2022-11-20T01:17:22;26.90;;;19.77;;
11524;SDS011;5819;49.648;8.330;2022-11-20T01:19:49;30.03;;;19.83;;
11524;SDS011;5819;49.648;8.330;2022-11-20T01:22:17;29.20;;;21.47;;
11524;SDS011;5819;49.648;8.330;2022-11-20T01:24:45;30.97;;;21.00;;
11524;SDS011;5819;49.648;8.330;2022-11-20T01:27:14;28.63;;;19.90;;
11524;SDS011;5819;49.648;8.330;2022-11-20T01:29:42;28.50;;;20.03;;
11524;SDS011;5819;49.648;8.330;2022-11-20T01:32:10;29.20;;;21.47;;
11524;SDS011;5819;49.648;8.330;2022-11-20T01:34:37;29.13;;;20.47;;
11524;SDS011;5819;49.648;8.330;2022-11-20T01:37:05;29.07;;;20.83;;
11524;SDS011;5819;49.648;8.330;2022-11-20T01:39:33;30.30;;;20.80;;
11524;SDS011;5819;49.648;8.330;2022-11-20T01:42:01;31.70;;;19.70;;
11524;SDS011;5819;49.648;8.330;2022-11-20T01:44:52;27.50;;;19.63;;
11524;SDS011;5819;49.648;8.330;2022-11-20T01:47:23;30.03;;;20.83;;
11524;SDS011;5819;49.648;8.330;2022-11-20T01:49:57;28.00;;;19.63;;
11524;SDS011;5819;49.648;8.330;2022-11-20T01:52:30;28.90;;;19.70;;
11524;SDS011;5819;49.648;8.330;2022-11-20T01:55:03;28.83;;;20.47;;
11524;SDS011;5819;49.648;8.330;2022-11-20T01:57:34;28.47;;;20.03;;
11524;SDS011;5819;49.648;8.330;2022-11-20T02:00:05;28.07;;;19.97;;
11524;SDS011;5819;49.648;8.330;2022-11-20T02:02:42;27.13;;;19.97;;
11524;SDS011;5819;49.648;8.330;2022-11-20T02:05:14;26.63;;;18.93;;
11524;SDS011;5819;49.648;8.330;2022-11-20T02:07:47;30.00;;;21.90;;
11524;SDS011;5819;49.648;8.330;2022-11-20T02:10:16;33.80;;;22.67;;
11524;SDS011;5819;49.648;8.330;2022-11-20T02:12:43;28.33;;;19.93;;
11524;SDS011;5819;49.648;8.330;2022-11-20T02:15:30;25.23;;;19.00;;
11524;SDS011;5819;49.648;8.330;2022-11-20T02:18:01;29.97;;;20.20;;
11524;SDS011;5819;49.648;8.330;2022-11-20T02:20:29;24.33;;;17.83;;
11524;SDS011;5819;49.648;8.330;2022-11-20T02:22:57;24.77;;;18.10;;
11524;SDS011;5819;49.648;8.330;2022-11-20T02:25:31;26.13;;;18.03;;
11524;SDS011;5819;49.648;8.330;2022-11-20T02:28:02;27.23;;;18.40;;
11524;SDS011;5819;49.648;8.330;2022-11-20T02:30:31;25.50;;;17.43;;
11524;SDS011;5819;49.648;8.330;2022-11-20T02:32:58;23.93;;;17.33;;
11524;SDS011;5819;49.648;8.330;2022-11-20T02:35:39;25.17;;;18.23;;
11524;SDS011;5819;49.648;8.330;2022-11-20T02:38:08;24.17;;;17.93;;
11524;SDS011;5819;49.648;8.330;2022-11-20T02:40:38;24.27;;;17.80;;
11524;SDS011;5819;49.648;8.330;2022-11-20T02:43:06;26.60;;;18.47;;
11524;SDS011;5819;49.648;8.330;2022-11-20T02:45:35;23.50;;;17.47;;
11524;SDS011;5819;49.648;8.330;2022-11-20T02:48:05;24.07;;;16.67;;
11524;SDS011;5819;49.648;8.330;2022-11-20T02:50:33;26.10;;;17.97;;
11524;SDS011;5819;49.648;8.330;2022-11-20T02:53:03;22.93;;;16.30;;
11524;SDS011;5819;49.648;8.330;2022-11-20T02:55:31;24.37;;;17.83;;
11524;SDS011;5819;49.648;8.330;2022-11-20T02:58:00;26.63;;;17.43;;
11524;SDS011;5819;49.648;8.330;2022-11-20T03:00:28;24.57;;;17.70;;
11524;SDS011;5819;49.648;8.330;2022-11-20T03:02:56;27.57;;;18.57;;
11524;SDS011;5819;49.648;8.330;2022-11-20T03:05:24;25.30;;;17.90;;
11524;SDS011;5819;49.648;8.330;2022-11-20T03:07:52;26.67;;;18.20;;
11524;SDS011;5819;49.648;8.330;2022-11-20T03:10:20;22.70;;;16.63;;
11524;SDS011;5819;49.648;8.330;2022-11-20T03:12:52;26.80;;;18.57;;
11524;SDS011;5819;49.648;8.330;2022-11-20T03:15:21;27.90;;;19.00;;
11524;SDS011;5819;49.648;8.330;2022-11-20T03:17:52;26.37;;;18.70;;
11524;SDS011;5819;49.648;8.330;2022-11-20T03:20:21;26.50;;;18.40;;
11524;SDS011;5819;49.648;8.330;2022-11-20T03:22:48;28.87;;;19.40;;
11524;SDS011;5819;49.648;8.330;2022-11-20T03:25:16;25.80;;;18.63;;
11524;SDS011;5819;49.648;8.330;2022-11-20T03:27:44;25.10;;;18.17;;
11524;SDS011;5819;49.648;8.330;2022-11-20T03:30:12;26.83;;;19.13;;
11524;SDS011;5819;49.648;8.330;2022-11-20T03:32:42;26.90;;;19.50;;
11524;SDS011;5819;49.648;8.330;2022-11-20T03:35:10;30.23;;;19.63;;
11524;SDS011;5819;49.648;8.330;2022-11-20T03:37:38;27.37;;;19.00;;
11524;SDS011;5819;49.648;8.330;2022-11-20T03:40:06;27.43;;;18.67;;
11524;SDS011;5819;49.648;8.330;2022-11-20T03:42:34;25.90;;;18.27;;
11524;SDS011;5819;49.648;8.330;2022-11-20T03:45:14;26.23;;;17.80;;
11524;SDS011;5819;49.648;8.330;2022-11-20T03:47:44;25.90;;;18.27;;
11524;SDS011;5819;49.648;8.330;2022-11-20T03:50:13;25.47;;;18.60;;
11524;SDS011;5819;49.648;8.330;2022-11-20T03:52:41;25.23;;;18.67;;
11524;SDS011;5819;49.648;8.330;2022-11-20T03:55:09;26.20;;;17.67;;
11524;SDS011;5819;49.648;8.330;2022-11-20T03:57:37;27.87;;;18.67;;
11524;SDS011;5819;49.648;8.330;2022-11-20T04:00:05;22.00;;;16.77;;
11524;SDS011;5819;49.648;8.330;2022-11-20T04:02:33;26.47;;;18.20;;
11524;SDS011;5819;49.648;8.330;2022-11-20T04:05:03;27.97;;;18.20;;
11524;SDS011;5819;49.648;8.330;2022-11-20T04:07:31;22.67;;;16.73;;
11524;SDS011;5819;49.648;8.330;2022-11-20T04:10:01;25.77;;;18.43;;
11524;SDS011;5819;49.648;8.330;2022-11-20T04:12:31;24.60;;;17.47;;
11524;SDS011;5819;49.648;8.330;2022-11-20T04:14:59;25.63;;;18.40;;
11524;SDS011;5819;49.648;8.330;2022-11-20T04:17:27;27.20;;;19.40;;
11524;SDS011;5819;49.648;8.330;2022-11-20T04:19:54;26.83;;;19.27;;
11524;SDS011;5819;49.648;8.330;2022-11-20T04:22:23;27.00;;;18.10;;
11524;SDS011;5819;49.648;8.330;2022-11-20T04:24:52;27.03;;;19.37;;
11524;SDS011;5819;49.648;8.330;2022-11-20T04:27:20;26.93;;;19.17;;
11524;SDS011;5819;49.648;8.330;2022-11-20T04:29:48;29.90;;;20.40;;
11524;SDS011;5819;49.648;8.330;2022-11-20T04:32:15;26.43;;;18.53;;
11524;SDS011;5819;49.648;8.330;2022-11-20T04:34:43;27.93;;;19.57;;
11524;SDS011;5819;49.648;8.330;2022-11-20T04:37:10;25.33;;;18.27;;
11524;SDS011;5819;49.648;8.330;2022-11-20T04:39:40;26.13;;;17.83;;
11524;SDS011;5819;49.648;8.330;2022-11-20T04:42:08;28.37;;;19.17;;
11524;SDS011;5819;49.648;8.330;2022-11-20T04:44:53;26.47;;;18.57;;
11524;SDS011;5819;49.648;8.330;2022-11-20T04:47:22;27.83;;;19.13;;
11524;SDS011;5819;49.648;8.330;2022-11-20T04:49:49;27.40;;;19.27;;
11524;SDS011;5819;49.648;8.330;2022-11-20T04:52:17;27.50;;;18.70;;
11524;SDS011;5819;49.648;8.330;2022-11-20T04:54:46;27.17;;;19.57;;
11524;SDS011;5819;49.648;8.330;2022-11-20T04:57:14;28.50;;;19.63;;
11524;SDS011;5819;49.648;8.330;2022-11-20T04:59:42;27.90;;;19.30;;
11524;SDS011;5819;49.648;8.330;2022-11-20T05:02:10;24.03;;;17.90;;
11524;SDS011;5819;49.648;8.330;2022-11-20T05:04:39;24.73;;;18.33;;
11524;SDS011;5819;49.648;8.330;2022-11-20T05:07:06;23.77;;;17.20;;
11524;SDS011;5819;49.648;8.330;2022-11-20T05:09:34;23.33;;;17.37;;
11524;SDS011;5819;49.648;8.330;2022-11-20T05:12:03;24.00;;;17.90;;
11524;SDS011;5819;49.648;8.330;2022-11-20T05:14:31;24.30;;;17.50;;
11524;SDS011;5819;49.648;8.330;2022-11-20T05:16:59;24.50;;;17.35;;
11524;SDS011;5819;49.648;8.330;2022-11-20T05:19:27;23.17;;;17.03;;
11524;SDS011;5819;49.648;8.330;2022-11-20T05:21:54;23.90;;;17.08;;
11524;SDS011;5819;49.648;8.330;2022-11-20T05:24:22;24.57;;;17.23;;
11524;SDS011;5819;49.648;8.330;2022-11-20T05:26:50;24.67;;;17.77;;
11524;SDS011;5819;49.648;8.330;2022-11-20T05:29:19;22.60;;;16.57;;
11524;SDS011;5819;49.648;8.330;2022-11-20T05:31:47;24.00;;;16.50;;
11524;SDS011;5819;49.648;8.330;2022-11-20T05:34:15;22.67;;;16.57;;
11524;SDS011;5819;49.648;8.330;2022-11-20T05:36:43;25.80;;;16.97;;
11524;SDS011;5819;49.648;8.330;2022-11-20T05:39:10;24.73;;;17.37;;
11524;SDS011;5819;49.648;8.330;2022-11-20T05:41:38;25.08;;;18.15;;
11524;SDS011;5819;49.648;8.330;2022-11-20T05:44:06;24.55;;;16.30;;
11524;SDS011;5819;49.648;8.330;2022-11-20T05:46:35;21.87;;;16.20;;
11524;SDS011;5819;49.648;8.330;2022-11-20T05:49:02;21.63;;;16.00;;
11524;SDS011;5819;49.648;8.330;2022-11-20T05:51:30;24.40;;;16.37;;
11524;SDS011;5819;49.648;8.330;2022-11-20T05:53:58;23.27;;;16.87;;
11524;SDS011;5819;49.648;8.330;2022-11-20T05:56:25;21.67;;;16.17;;
11524;SDS011;5819;49.648;8.330;2022-11-20T05:58:53;28.10;;;18.20;;
11524;SDS011;5819;49.648;8.330;2022-11-20T06:01:21;22.57;;;16.50;;
11524;SDS011;5819;49.648;8.330;2022-11-20T06:03:52;22.73;;;16.90;;
11524;SDS011;5819;49.648;8.330;2022-11-20T06:06:20;23.30;;;17.43;;
11524;SDS011;5819;49.648;8.330;2022-11-20T06:08:48;25.27;;;18.17;;
11524;SDS011;5819;49.648;8.330;2022-11-20T06:11:16;24.40;;;17.13;;
11524;SDS011;5819;49.648;8.330;2022-11-20T06:13:44;24.13;;;17.20;;
11524;SDS011;5819;49.648;8.330;2022-11-20T06:16:13;25.20;;;18.53;;
11524;SDS011;5819;49.648;8.330;2022-11-20T06:18:43;24.03;;;18.00;;
11524;SDS011;5819;49.648;8.330;2022-11-20T06:21:13;25.50;;;17.97;;
11524;SDS011;5819;49.648;8.330;2022-11-20T06:23:42;29.03;;;18.43;;
11524;SDS011;5819;49.648;8.330;2022-11-20T06:26:12;28.08;;;18.58;;
11524;SDS011;5819;49.648;8.330;2022-11-20T06:28:41;30.27;;;20.73;;
11524;SDS011;5819;49.648;8.330;2022-11-20T06:31:10;29.43;;;19.73;;
11524;SDS011;5819;49.648;8.330;2022-11-20T06:33:39;29.70;;;19.83;;
11524;SDS011;5819;49.648;8.330;2022-11-20T06:36:07;29.17;;;19.73;;
11524;SDS011;5819;49.648;8.330;2022-11-20T06:38:39;26.47;;;18.97;;
11524;SDS011;5819;49.648;8.330;2022-11-20T06:41:08;30.10;;;20.53;;
11524;SDS011;5819;49.648;8.330;2022-11-20T06:43:39;25.80;;;18.48;;
11524;SDS011;5819;49.648;8.330;2022-11-20T06:46:08;25.42;;;18.25;;
11524;SDS011;5819;49.648;8.330;2022-11-20T06:48:36;29.05;;;20.90;;
11524;SDS011;5819;49.648;8.330;2022-11-20T06:51:05;29.67;;;20.37;;
11524;SDS011;5819;49.648;8.330;2022-11-20T06:53:33;29.70;;;20.92;;
11524;SDS011;5819;49.648;8.330;2022-11-20T06:56:03;28.00;;;19.60;;
11524;SDS011;5819;49.648;8.330;2022-11-20T06:58:32;28.53;;;20.23;;
11524;SDS011;5819;49.648;8.330;2022-11-20T07:01:01;27.40;;;19.67;;
11524;SDS011;5819;49.648;8.330;2022-11-20T07:03:30;26.98;;;19.88;;
11524;SDS011;5819;49.648;8.330;2022-11-20T07:05:58;30.50;;;19.33;;
11524;SDS011;5819;49.648;8.330;2022-11-20T07:08:28;29.17;;;19.83;;
11524;SDS011;5819;49.648;8.330;2022-11-20T07:10:57;29.17;;;20.40;;
11524;SDS011;5819;49.648;8.330;2022-11-20T07:13:28;27.20;;;19.27;;
11524;SDS011;5819;49.648;8.330;2022-11-20T07:15:58;26.47;;;18.33;;
11524;SDS011;5819;49.648;8.330;2022-11-20T07:18:27;27.77;;;19.97;;
11524;SDS011;5819;49.648;8.330;2022-11-20T07:20:55;26.63;;;18.83;;
11524;SDS011;5819;49.648;8.330;2022-11-20T07:23:23;25.77;;;18.88;;
11524;SDS011;5819;49.648;8.330;2022-11-20T07:25:51;26.20;;;19.50;;
11524;SDS011;5819;49.648;8.330;2022-11-20T07:28:18;26.33;;;18.80;;
11524;SDS011;5819;49.648;8.330;2022-11-20T07:30:50;28.42;;;20.00;;
11524;SDS011;5819;49.648;8.330;2022-11-20T07:33:18;28.50;;;19.75;;
11524;SDS011;5819;49.648;8.330;2022-11-20T07:35:46;28.33;;;20.47;;
11524;SDS011;5819;49.648;8.330;2022-11-20T07:38:14;29.35;;;20.65;;
11524;SDS011;5819;49.648;8.330;2022-11-20T07:40:42;24.67;;;18.83;;
11524;SDS011;5819;49.648;8.330;2022-11-20T07:43:10;27.80;;;19.57;;
11524;SDS011;5819;49.648;8.330;2022-11-20T07:45:37;29.23;;;19.77;;
11524;SDS011;5819;49.648;8.330;2022-11-20T07:48:06;26.63;;;18.92;;
11524;SDS011;5819;49.648;8.330;2022-11-20T07:50:34;27.20;;;19.10;;
11524;SDS011;5819;49.648;8.330;2022-11-20T07:53:02;28.83;;;20.10;;
11524;SDS011;5819;49.648;8.330;2022-11-20T07:55:31;28.90;;;19.80;;
11524;SDS011;5819;49.648;8.330;2022-11-20T07:57:59;29.60;;;21.33;;
11524;SDS011;5819;49.648;8.330;2022-11-20T08:00:27;31.73;;;23.90;;
11524;SDS011;5819;49.648;8.330;2022-11-20T08:02:55;32.13;;;23.27;;
11524;SDS011;5819;49.648;8.330;2022-11-20T08:05:24;30.00;;;22.83;;
11524;SDS011;5819;49.648;8.330;2022-11-20T08:07:52;33.00;;;25.60;;
11524;SDS011;5819;49.648;8.330;2022-11-20T08:10:19;31.42;;;22.00;;
11524;SDS011;5819;49.648;8.330;2022-11-20T08:12:47;30.20;;;20.70;;
11524;SDS011;5819;49.648;8.330;2022-11-20T08:15:34;28.17;;;19.93;;
11524;SDS011;5819;49.648;8.330;2022-11-20T08:18:03;27.63;;;18.50;;
11524;SDS011;5819;49.648;8.330;2022-11-20T08:20:54;25.73;;;18.00;;
11524;SDS011;5819;49.648;8.330;2022-11-20T08:23:22;26.13;;;18.70;;
11524;SDS011;5819;49.648;8.330;2022-11-20T08:25:49;26.10;;;18.57;;
11524;SDS011;5819;49.648;8.330;2022-11-20T08:28:18;28.40;;;19.60;;
11524;SDS011;5819;49.648;8.330;2022-11-20T08:30:47;31.17;;;21.27;;
11524;SDS011;5819;49.648;8.330;2022-11-20T08:33:16;29.77;;;20.13;;
11524;SDS011;5819;49.648;8.330;2022-11-20T08:35:44;29.93;;;21.73;;
11524;SDS011;5819;49.648;8.330;2022-11-20T08:38:14;31.97;;;21.07;;
11524;SDS011;5819;49.648;8.330;2022-11-20T08:40:41;29.90;;;21.53;;
11524;SDS011;5819;49.648;8.330;2022-11-20T08:43:30;31.17;;;21.00;;
11524;SDS011;5819;49.648;8.330;2022-11-20T08:45:58;31.37;;;21.37;;
11524;SDS011;5819;49.648;8.330;2022-11-20T08:48:25;29.80;;;20.33;;
11524;SDS011;5819;49.648;8.330;2022-11-20T08:50:57;28.80;;;20.30;;
11524;SDS011;5819;49.648;8.330;2022-11-20T08:53:27;31.33;;;21.07;;
11524;SDS011;5819;49.648;8.330;2022-11-20T08:55:56;28.10;;;19.08;;
11524;SDS011;5819;49.648;8.330;2022-11-20T08:58:24;28.83;;;20.63;;
11524;SDS011;5819;49.648;8.330;2022-11-20T09:00:52;28.53;;;19.43;;
11524;SDS011;5819;49.648;8.330;2022-11-20T09:03:21;25.90;;;18.90;;
11524;SDS011;5819;49.648;8.330;2022-11-20T09:05:57;28.97;;;20.67;;
11524;SDS011;5819;49.648;8.330;2022-11-20T09:08:28;28.27;;;18.23;;
11524;SDS011;5819;49.648;8.330;2022-11-20T09:10:56;27.80;;;20.17;;
11524;SDS011;5819;49.648;8.330;2022-11-20T09:13:25;29.20;;;20.07;;
11524;SDS011;5819;49.648;8.330;2022-11-20T09:15:55;31.70;;;22.23;;
11524;SDS011;5819;49.648;8.330;2022-11-20T09:18:23;30.27;;;21.93;;
11524;SDS011;5819;49.648;8.330;2022-11-20T09:20:51;36.00;;;23.90;;
11524;SDS011;5819;49.648;8.330;2022-11-20T09:23:23;35.10;;;22.77;;
11524;SDS011;5819;49.648;8.330;2022-11-20T09:25:53;31.13;;;20.75;;
11524;SDS011;5819;49.648;8.330;2022-11-20T09:28:25;28.90;;;20.40;;
11524;SDS011;5819;49.648;8.330;2022-11-20T09:30:53;29.27;;;21.40;;
11524;SDS011;5819;49.648;8.330;2022-11-20T09:33:21;30.47;;;21.40;;
11524;SDS011;5819;49.648;8.330;2022-11-20T09:35:49;30.73;;;20.77;;
11524;SDS011;5819;49.648;8.330;2022-11-20T09:38:16;30.43;;;20.80;;
11524;SDS011;5819;49.648;8.330;2022-11-20T09:40:45;28.47;;;20.60;;
11524;SDS011;5819;49.648;8.330;2022-11-20T09:43:24;31.23;;;21.53;;
11524;SDS011;5819;49.648;8.330;2022-11-20T09:46:09;28.73;;;20.50;;
11524;SDS011;5819;49.648;8.330;2022-11-20T09:49:00;31.13;;;20.60;;
11524;SDS011;5819;49.648;8.330;2022-11-20T09:51:39;30.77;;;21.27;;
11524;SDS011;5819;49.648;8.330;2022-11-20T09:54:15;27.83;;;20.03;;
11524;SDS011;5819;49.648;8.330;2022-11-20T09:56:45;27.43;;;19.40;;
11524;SDS011;5819;49.648;8.330;2022-11-20T10:02:08;27.77;;;20.00;;
11524;SDS011;5819;49.648;8.330;2022-11-20T10:04:44;28.05;;;21.92;;
11524;SDS011;5819;49.648;8.330;2022-11-20T10:07:17;27.33;;;20.05;;
11524;SDS011;5819;49.648;8.330;2022-11-20T10:09:58;29.45;;;20.05;;
11524;SDS011;5819;49.648;8.330;2022-11-20T10:12:29;29.48;;;20.45;;
11524;SDS011;5819;49.648;8.330;2022-11-20T10:15:10;27.77;;;20.13;;
11524;SDS011;5819;49.648;8.330;2022-11-20T10:18:00;29.73;;;20.58;;
11524;SDS011;5819;49.648;8.330;2022-11-20T10:20:39;27.30;;;19.87;;
11524;SDS011;5819;49.648;8.330;2022-11-20T10:23:20;27.00;;;19.17;;
11524;SDS011;5819;49.648;8.330;2022-11-20T10:26:06;29.77;;;20.20;;
11524;SDS011;5819;49.648;8.330;2022-11-20T10:28:47;26.63;;;19.65;;
11524;SDS011;5819;49.648;8.330;2022-11-20T10:31:34;28.27;;;19.15;;
11524;SDS011;5819;49.648;8.330;2022-11-20T10:34:05;24.75;;;19.15;;
11524;SDS011;5819;49.648;8.330;2022-11-20T10:36:46;30.80;;;20.55;;
11524;SDS011;5819;49.648;8.330;2022-11-20T10:39:18;26.52;;;19.00;;
11524;SDS011;5819;49.648;8.330;2022-11-20T10:41:53;28.35;;;20.20;;
11524;SDS011;5819;49.648;8.330;2022-11-20T10:44:21;31.47;;;20.93;;
11524;SDS011;5819;49.648;8.330;2022-11-20T10:47:11;28.42;;;21.30;;
11524;SDS011;5819;49.648;8.330;2022-11-20T10:49:42;30.77;;;21.45;;
11524;SDS011;5819;49.648;8.330;2022-11-20T10:52:13;31.25;;;22.35;;
11524;SDS011;5819;49.648;8.330;2022-11-20T10:54:49;29.90;;;21.63;;
11524;SDS011;5819;49.648;8.330;2022-11-20T10:57:35;32.40;;;22.05;;
11524;SDS011;5819;49.648;8.330;2022-11-20T11:00:19;28.23;;;20.95;;
11524;SDS011;5819;49.648;8.330;2022-11-20T11:02:48;30.48;;;21.67;;
11524;SDS011;5819;49.648;8.330;2022-11-20T11:05:22;30.20;;;22.73;;
11524;SDS011;5819;49.648;8.330;2022-11-20T11:07:58;33.33;;;23.10;;
11524;SDS011;5819;49.648;8.330;2022-11-20T11:10:28;32.20;;;23.40;;
11524;SDS011;5819;49.648;8.330;2022-11-20T11:13:03;32.70;;;22.60;;
11524;SDS011;5819;49.648;8.330;2022-11-20T11:15:37;32.45;;;24.08;;
11524;SDS011;5819;49.648;8.330;2022-11-20T11:18:09;31.83;;;23.42;;
11524;SDS011;5819;49.648;8.330;2022-11-20T11:20:37;33.10;;;24.45;;
11524;SDS011;5819;49.648;8.330;2022-11-20T11:23:10;35.05;;;24.13;;
11524;SDS011;5819;49.648;8.330;2022-11-20T11:25:56;35.95;;;25.55;;
11524;SDS011;5819;49.648;8.330;2022-11-20T11:28:26;34.63;;;25.92;;
11524;SDS011;5819;49.648;8.330;2022-11-20T11:30:55;37.38;;;25.25;;
11524;SDS011;5819;49.648;8.330;2022-11-20T11:33:25;35.83;;;25.70;;
11524;SDS011;5819;49.648;8.330;2022-11-20T11:35:55;34.90;;;25.02;;
11524;SDS011;5819;49.648;8.330;2022-11-20T11:38:27;34.50;;;25.63;;
11524;SDS011;5819;49.648;8.330;2022-11-20T11:40:58;34.05;;;25.52;;
11524;SDS011;5819;49.648;8.330;2022-11-20T11:43:26;34.15;;;24.95;;
11524;SDS011;5819;49.648;8.330;2022-11-20T11:46:28;33.58;;;25.75;;
11524;SDS011;5819;49.648;8.330;2022-11-20T11:49:00;32.45;;;24.35;;
11524;SDS011;5819;49.648;8.330;2022-11-20T11:51:41;32.35;;;23.73;;
11524;SDS011;5819;49.648;8.330;2022-11-20T11:54:22;32.95;;;24.23;;
11524;SDS011;5819;49.648;8.330;2022-11-20T11:56:52;32.25;;;23.88;;
11524;SDS011;5819;49.648;8.330;2022-11-20T11:59:23;32.13;;;23.92;;
11524;SDS011;5819;49.648;8.330;2022-11-20T12:01:56;32.20;;;23.85;;
11524;SDS011;5819;49.648;8.330;2022-11-20T12:04:34;32.42;;;23.05;;
11524;SDS011;5819;49.648;8.330;2022-11-20T12:07:10;33.58;;;24.33;;
11524;SDS011;5819;49.648;8.330;2022-11-20T12:10:03;32.15;;;23.02;;
11524;SDS011;5819;49.648;8.330;2022-11-20T12:12:35;34.53;;;24.88;;
11524;SDS011;5819;49.648;8.330;2022-11-20T12:15:09;33.05;;;24.27;;
11524;SDS011;5819;49.648;8.330;2022-11-20T12:17:39;33.53;;;24.10;;
11524;SDS011;5819;49.648;8.330;2022-11-20T12:20:12;31.50;;;23.38;;
11524;SDS011;5819;49.648;8.330;2022-11-20T12:22:43;34.63;;;24.13;;
11524;SDS011;5819;49.648;8.330;2022-11-20T12:25:21;34.50;;;23.48;;
11524;SDS011;5819;49.648;8.330;2022-11-20T12:27:55;29.38;;;21.42;;
11524;SDS011;5819;49.648;8.330;2022-11-20T12:30:47;31.85;;;22.48;;
11524;SDS011;5819;49.648;8.330;2022-11-20T12:33:24;30.00;;;21.75;;
11524;SDS011;5819;49.648;8.330;2022-11-20T12:36:16;31.40;;;21.83;;
11524;SDS011;5819;49.648;8.330;2022-11-20T12:38:55;28.13;;;20.95;;
11524;SDS011;5819;49.648;8.330;2022-11-20T12:41:39;31.45;;;21.83;;
11524;SDS011;5819;49.648;8.330;2022-11-20T12:44:48;31.17;;;21.45;;
11524;SDS011;5819;49.648;8.330;2022-11-20T12:47:42;29.10;;;21.10;;
11524;SDS011;5819;49.648;8.330;2022-11-20T12:50:23;26.85;;;20.35;;
11524;SDS011;5819;49.648;8.330;2022-11-20T12:53:27;30.75;;;20.88;;
11524;SDS011;5819;49.648;8.330;2022-11-20T12:56:04;30.90;;;22.02;;
11524;SDS011;5819;49.648;8.330;2022-11-20T12:58:43;31.77;;;23.55;;
11524;SDS011;5819;49.648;8.330;2022-11-20T13:01:21;31.23;;;22.25;;
11524;SDS011;5819;49.648;8.330;2022-11-20T13:04:30;32.08;;;22.42;;
11524;SDS011;5819;49.648;8.330;2022-11-20T13:07:14;30.30;;;21.85;;
11524;SDS011;5819;49.648;8.330;2022-11-20T13:09:47;28.38;;;20.52;;
11524;SDS011;5819;49.648;8.330;2022-11-20T13:12:18;28.77;;;20.25;;
11524;SDS011;5819;49.648;8.330;2022-11-20T13:14:51;25.73;;;18.65;;
11524;SDS011;5819;49.648;8.330;2022-11-20T13:17:28;26.40;;;18.20;;
11524;SDS011;5819;49.648;8.330;2022-11-20T13:20:02;26.38;;;19.38;;
11524;SDS011;5819;49.648;8.330;2022-11-20T13:22:42;24.95;;;18.40;;
11524;SDS011;5819;49.648;8.330;2022-11-20T13:25:22;25.67;;;18.55;;
11524;SDS011;5819;49.648;8.330;2022-11-20T13:27:51;25.52;;;18.42;;
11524;SDS011;5819;49.648;8.330;2022-11-20T13:30:21;21.45;;;16.50;;
11524;SDS011;5819;49.648;8.330;2022-11-20T13:32:50;22.83;;;16.92;;
11524;SDS011;5819;49.648;8.330;2022-11-20T13:35:25;24.08;;;16.63;;
11524;SDS011;5819;49.648;8.330;2022-11-20T13:38:05;22.08;;;16.15;;
11524;SDS011;5819;49.648;8.330;2022-11-20T13:40:37;20.55;;;16.05;;
11524;SDS011;5819;49.648;8.330;2022-11-20T13:43:20;23.70;;;16.60;;
11524;SDS011;5819;49.648;8.330;2022-11-20T13:45:54;21.83;;;16.00;;
11524;SDS011;5819;49.648;8.330;2022-11-20T13:48:27;19.50;;;15.30;;
11524;SDS011;5819;49.648;8.330;2022-11-20T13:51:04;21.50;;;15.32;;
11524;SDS011;5819;49.648;8.330;2022-11-20T13:53:45;19.17;;;14.70;;
11524;SDS011;5819;49.648;8.330;2022-11-20T13:56:27;17.98;;;13.57;;
11524;SDS011;5819;49.648;8.330;2022-11-20T13:59:09;18.15;;;12.25;;
11524;SDS011;5819;49.648;8.330;2022-11-20T14:01:54;17.65;;;12.13;;
11524;SDS011;5819;49.648;8.330;2022-11-20T14:04:25;16.42;;;10.45;;
11524;SDS011;5819;49.648;8.330;2022-11-20T14:06:59;18.48;;;10.90;;
11524;SDS011;5819;49.648;8.330;2022-11-20T14:09:28;12.75;;;8.95;;
11524;SDS011;5819;49.648;8.330;2022-11-20T14:11:59;11.85;;;8.45;;
11524;SDS011;5819;49.648;8.330;2022-11-20T14:14:30;13.93;;;8.95;;
11524;SDS011;5819;49.648;8.330;2022-11-20T14:17:06;10.85;;;8.63;;
11524;SDS011;5819;49.648;8.330;2022-11-20T14:19:36;14.00;;;8.50;;
11524;SDS011;5819;49.648;8.330;2022-11-20T14:22:08;14.60;;;9.27;;
11524;SDS011;5819;49.648;8.330;2022-11-20T14:24:38;13.70;;;9.77;;
11524;SDS011;5819;49.648;8.330;2022-11-20T14:27:14;13.13;;;9.18;;
11524;SDS011;5819;49.648;8.330;2022-11-20T14:29:47;12.20;;;9.00;;
11524;SDS011;5819;49.648;8.330;2022-11-20T14:32:19;10.77;;;7.88;;
11524;SDS011;5819;49.648;8.330;2022-11-20T14:34:49;11.27;;;6.65;;
11524;SDS011;5819;49.648;8.330;2022-11-20T14:37:21;9.30;;;6.05;;
11524;SDS011;5819;49.648;8.330;2022-11-20T14:39:53;8.48;;;5.20;;
11524;SDS011;5819;49.648;8.330;2022-11-20T14:42:27;6.40;;;4.70;;
11524;SDS011;5819;49.648;8.330;2022-11-20T14:44:57;6.90;;;4.35;;
11524;SDS011;5819;49.648;8.330;2022-11-20T14:47:26;6.90;;;3.40;;
11524;SDS011;5819;49.648;8.330;2022-11-20T14:49:58;6.03;;;3.00;;
11524;SDS011;5819;49.648;8.330;2022-11-20T14:52:35;6.05;;;2.90;;
11524;SDS011;5819;49.648;8.330;2022-11-20T14:55:03;7.38;;;3.28;;
11524;SDS011;5819;49.648;8.330;2022-11-20T14:57:34;5.30;;;2.25;;
11524;SDS011;5819;49.648;8.330;2022-11-20T15:00:05;4.57;;;2.10;;
11524;SDS011;5819;49.648;8.330;2022-11-20T15:02:38;8.32;;;2.40;;
11524;SDS011;5819;49.648;8.330;2022-11-20T15:05:07;5.43;;;2.55;;